sensor_id;sensor_type;location;lat;lon;timestamp;P1;durP1;ratioP1;P2;durP2;ratioP2
73421;SDS011;61637;47.760;-122.022;2022-12-18T00:00:01;21.7;;;19.8;;
73421;SDS011;61637;47.760;-122.022;2022-12-18T00:02:02;20.5;;;18.6;;
73421;SDS011;61637;47.760;-122.022;2022-12-18T00:04:03;20.7;;;18.9;;
73421;SDS011;61637;47.760;-122.022;2022-12-18T00:06:01;20.4;;;18.6;;
73421;SDS011;61637;47.760;-122.022;2022-12-18T00:08:01;21.0;;;19.0;;
73421;SDS011;61637;47.760;-122.022;2022-12-18T00:10:01;19.9;;;18.1;;
73421;SDS011;61637;47.760;-122.022;2022-12-18T00:12:01;20.2;;;18.3;;
73421;SDS011;61637;47.760;-122.022;2022-12-18T00:14:01;21.3;;;19.3;;
73421;SDS011;61637;47.760;-122.022;2022-12-18T00:16:03;20.9;;;19.1;;
73421;SDS011;61637;47.760;-122.022;2022-12-18T00:18:01;21.2;;;19.2;;
73421;SDS011;61637;47.760;-122.022;2022-12-18T00:20:01;21.6;;;19.6;;
73421;SDS011;61637;47.760;-122.022;2022-12-18T00:22:01;20.6;;;18.8;;
73421;SDS011;61637;47.760;-122.022;2022-12-18T00:24:01;21.4;;;19.5;;
73421;SDS011;61637;47.760;-122.022;2022-12-18T00:26:03;20.8;;;18.8;;
73421;SDS011;61637;47.760;-122.022;2022-12-18T00:28:02;19.6;;;17.8;;
73421;SDS011;61637;47.760;-122.022;2022-12-18T00:30:02;19.8;;;18.0;;
73421;SDS011;61637;47.760;-122.022;2022-12-18T00:32:01;20.0;;;18.2;;
73421;SDS011;61637;47.760;-122.022;2022-12-18T00:34:02;21.1;;;19.2;;
73421;SDS011;61637;47.760;-122.022;2022-12-18T00:36:02;21.1;;;18.9;;
73421;SDS011;61637;47.760;-122.022;2022-12-18T00:38:01;20.3;;;18.2;;
73421;SDS011;61637;47.760;-122.022;2022-12-18T00:40:01;20.4;;;18.4;;
73421;SDS011;61637;47.760;-122.022;2022-12-18T00:42:01;21.2;;;19.2;;
73421;SDS011;61637;47.760;-122.022;2022-12-18T00:44:02;19.0;;;17.2;;
73421;SDS011;61637;47.760;-122.022;2022-12-18T00:46:01;21.3;;;19.3;;
73421;SDS011;61637;47.760;-122.022;2022-12-18T00:48:01;19.5;;;17.8;;
73421;SDS011;61637;47.760;-122.022;2022-12-18T00:50:01;20.1;;;18.3;;
73421;SDS011;61637;47.760;-122.022;2022-12-18T00:52:01;20.6;;;18.6;;
73421;SDS011;61637;47.760;-122.022;2022-12-18T00:54:01;20.4;;;18.5;;
73421;SDS011;61637;47.760;-122.022;2022-12-18T00:56:01;20.9;;;18.9;;
73421;SDS011;61637;47.760;-122.022;2022-12-18T00:58:01;19.8;;;18.1;;
73421;SDS011;61637;47.760;-122.022;2022-12-18T01:00:02;20.2;;;18.3;;
73421;SDS011;61637;47.760;-122.022;2022-12-18T01:02:01;19.4;;;17.7;;
73421;SDS011;61637;47.760;-122.022;2022-12-18T01:04:03;20.1;;;18.4;;
73421;SDS011;61637;47.760;-122.022;2022-12-18T01:06:05;19.5;;;17.8;;
73421;SDS011;61637;47.760;-122.022;2022-12-18T01:08:01;18.8;;;17.1;;
73421;SDS011;61637;47.760;-122.022;2022-12-18T01:10:01;19.9;;;17.9;;
73421;SDS011;61637;47.760;-122.022;2022-12-18T01:12:01;19.6;;;17.8;;
73421;SDS011;61637;47.760;-122.022;2022-12-18T01:14:01;19.3;;;17.6;;
73421;SDS011;61637;47.760;-122.022;2022-12-18T01:16:01;19.2;;;17.4;;
73421;SDS011;61637;47.760;-122.022;2022-12-18T01:18:01;20.2;;;18.5;;
73421;SDS011;61637;47.760;-122.022;2022-12-18T01:20:01;18.8;;;17.1;;
73421;SDS011;61637;47.760;-122.022;2022-12-18T01:22:01;18.9;;;17.2;;
73421;SDS011;61637;47.760;-122.022;2022-12-18T01:24:02;19.5;;;17.7;;
73421;SDS011;61637;47.760;-122.022;2022-12-18T01:26:05;18.6;;;17.0;;
73421;SDS011;61637;47.760;-122.022;2022-12-18T01:28:02;18.8;;;17.1;;
73421;SDS011;61637;47.760;-122.022;2022-12-18T01:30:01;17.6;;;16.1;;
73421;SDS011;61637;47.760;-122.022;2022-12-18T01:32:01;18.9;;;17.3;;
73421;SDS011;61637;47.760;-122.022;2022-12-18T01:34:02;19.6;;;17.9;;
73421;SDS011;61637;47.760;-122.022;2022-12-18T01:36:01;17.9;;;16.3;;
73421;SDS011;61637;47.760;-122.022;2022-12-18T01:38:01;18.4;;;16.8;;
73421;SDS011;61637;47.760;-122.022;2022-12-18T01:40:01;19.2;;;17.6;;
73421;SDS011;61637;47.760;-122.022;2022-12-18T01:42:03;18.7;;;17.0;;
73421;SDS011;61637;47.760;-122.022;2022-12-18T01:44:01;19.5;;;17.8;;
73421;SDS011;61637;47.760;-122.022;2022-12-18T01:46:01;19.4;;;17.6;;
73421;SDS011;61637;47.760;-122.022;2022-12-18T01:48:04;18.0;;;16.5;;
73421;SDS011;61637;47.760;-122.022;2022-12-18T01:50:03;18.7;;;17.1;;
73421;SDS011;61637;47.760;-122.022;2022-12-18T01:52:01;20.2;;;18.4;;
73421;SDS011;61637;47.760;-122.022;2022-12-18T01:54:01;18.9;;;17.2;;
73421;SDS011;61637;47.760;-122.022;2022-12-18T01:56:01;19.6;;;17.9;;
73421;SDS011;61637;47.760;-122.022;2022-12-18T01:58:02;20.1;;;18.3;;
73421;SDS011;61637;47.760;-122.022;2022-12-18T02:00:05;18.8;;;17.1;;
73421;SDS011;61637;47.760;-122.022;2022-12-18T02:02:02;19.7;;;17.9;;
73421;SDS011;61637;47.760;-122.022;2022-12-18T02:04:18;19.2;;;17.4;;
73421;SDS011;61637;47.760;-122.022;2022-12-18T02:06:09;19.2;;;17.6;;
73421;SDS011;61637;47.760;-122.022;2022-12-18T02:08:08;20.4;;;18.5;;
73421;SDS011;61637;47.760;-122.022;2022-12-18T02:10:06;19.2;;;17.6;;
73421;SDS011;61637;47.760;-122.022;2022-12-18T02:12:08;18.7;;;17.0;;
73421;SDS011;61637;47.760;-122.022;2022-12-18T02:14:10;19.9;;;18.1;;
73421;SDS011;61637;47.760;-122.022;2022-12-18T02:16:07;19.9;;;18.1;;
73421;SDS011;61637;47.760;-122.022;2022-12-18T02:18:07;19.1;;;17.3;;
73421;SDS011;61637;47.760;-122.022;2022-12-18T02:20:12;21.3;;;19.4;;
73421;SDS011;61637;47.760;-122.022;2022-12-18T02:22:11;21.4;;;19.4;;
73421;SDS011;61637;47.760;-122.022;2022-12-18T02:24:12;21.3;;;19.3;;
73421;SDS011;61637;47.760;-122.022;2022-12-18T02:26:08;22.8;;;20.7;;
73421;SDS011;61637;47.760;-122.022;2022-12-18T02:28:05;22.8;;;20.5;;
73421;SDS011;61637;47.760;-122.022;2022-12-18T02:30:03;22.0;;;19.9;;
73421;SDS011;61637;47.760;-122.022;2022-12-18T02:32:04;23.1;;;20.7;;
73421;SDS011;61637;47.760;-122.022;2022-12-18T02:34:03;24.8;;;22.5;;
73421;SDS011;61637;47.760;-122.022;2022-12-18T02:36:01;22.9;;;20.6;;
73421;SDS011;61637;47.760;-122.022;2022-12-18T02:38:02;22.2;;;20.2;;
73421;SDS011;61637;47.760;-122.022;2022-12-18T02:40:03;21.9;;;19.9;;
73421;SDS011;61637;47.760;-122.022;2022-12-18T02:42:01;24.4;;;22.1;;
73421;SDS011;61637;47.760;-122.022;2022-12-18T02:44:09;24.1;;;21.9;;
73421;SDS011;61637;47.760;-122.022;2022-12-18T02:48:01;24.0;;;21.6;;
73421;SDS011;61637;47.760;-122.022;2022-12-18T02:50:10;24.6;;;22.1;;
73421;SDS011;61637;47.760;-122.022;2022-12-18T02:52:07;26.5;;;23.7;;
73421;SDS011;61637;47.760;-122.022;2022-12-18T02:54:07;23.1;;;20.8;;
73421;SDS011;61637;47.760;-122.022;2022-12-18T02:56:05;23.3;;;21.1;;
73421;SDS011;61637;47.760;-122.022;2022-12-18T02:58:05;24.0;;;21.7;;
73421;SDS011;61637;47.760;-122.022;2022-12-18T03:00:06;22.6;;;20.3;;
73421;SDS011;61637;47.760;-122.022;2022-12-18T03:02:07;23.2;;;21.0;;
73421;SDS011;61637;47.760;-122.022;2022-12-18T03:04:06;22.2;;;20.1;;
73421;SDS011;61637;47.760;-122.022;2022-12-18T03:06:05;23.2;;;20.9;;
73421;SDS011;61637;47.760;-122.022;2022-12-18T03:08:05;22.4;;;20.2;;
73421;SDS011;61637;47.760;-122.022;2022-12-18T03:10:02;21.8;;;19.8;;
73421;SDS011;61637;47.760;-122.022;2022-12-18T03:12:05;22.7;;;20.6;;
73421;SDS011;61637;47.760;-122.022;2022-12-18T03:14:03;22.6;;;20.4;;
73421;SDS011;61637;47.760;-122.022;2022-12-18T03:16:04;22.9;;;20.7;;
73421;SDS011;61637;47.760;-122.022;2022-12-18T03:18:04;22.3;;;20.1;;
73421;SDS011;61637;47.760;-122.022;2022-12-18T03:20:05;21.7;;;19.8;;
73421;SDS011;61637;47.760;-122.022;2022-12-18T03:22:02;22.2;;;20.1;;
73421;SDS011;61637;47.760;-122.022;2022-12-18T03:24:04;22.9;;;20.7;;
73421;SDS011;61637;47.760;-122.022;2022-12-18T03:26:05;21.9;;;19.7;;
73421;SDS011;61637;47.760;-122.022;2022-12-18T03:28:02;31.5;;;21.4;;
73421;SDS011;61637;47.760;-122.022;2022-12-18T03:30:04;22.1;;;19.7;;
73421;SDS011;61637;47.760;-122.022;2022-12-18T03:32:05;20.6;;;18.7;;
73421;SDS011;61637;47.760;-122.022;2022-12-18T03:34:05;20.8;;;18.8;;
73421;SDS011;61637;47.760;-122.022;2022-12-18T03:36:02;22.6;;;20.5;;
73421;SDS011;61637;47.760;-122.022;2022-12-18T03:38:02;23.0;;;20.8;;
73421;SDS011;61637;47.760;-122.022;2022-12-18T03:40:01;21.3;;;19.4;;
73421;SDS011;61637;47.760;-122.022;2022-12-18T03:42:06;22.6;;;20.4;;
73421;SDS011;61637;47.760;-122.022;2022-12-18T03:44:05;21.0;;;19.1;;
73421;SDS011;61637;47.760;-122.022;2022-12-18T03:46:06;21.5;;;19.6;;
73421;SDS011;61637;47.760;-122.022;2022-12-18T03:48:05;21.7;;;19.6;;
73421;SDS011;61637;47.760;-122.022;2022-12-18T03:50:07;21.6;;;19.6;;
73421;SDS011;61637;47.760;-122.022;2022-12-18T03:52:04;27.4;;;19.8;;
73421;SDS011;61637;47.760;-122.022;2022-12-18T03:54:03;24.1;;;20.9;;
73421;SDS011;61637;47.760;-122.022;2022-12-18T03:56:02;20.5;;;18.6;;
73421;SDS011;61637;47.760;-122.022;2022-12-18T03:58:03;37.7;;;20.7;;
73421;SDS011;61637;47.760;-122.022;2022-12-18T04:00:05;32.7;;;21.6;;
73421;SDS011;61637;47.760;-122.022;2022-12-18T04:02:02;21.2;;;19.0;;
73421;SDS011;61637;47.760;-122.022;2022-12-18T04:04:02;22.7;;;20.6;;
73421;SDS011;61637;47.760;-122.022;2022-12-18T04:06:02;21.4;;;19.4;;
73421;SDS011;61637;47.760;-122.022;2022-12-18T04:08:01;21.3;;;19.4;;
73421;SDS011;61637;47.760;-122.022;2022-12-18T04:10:04;22.0;;;19.7;;
73421;SDS011;61637;47.760;-122.022;2022-12-18T04:12:01;21.9;;;19.6;;
73421;SDS011;61637;47.760;-122.022;2022-12-18T04:14:01;23.5;;;21.2;;
73421;SDS011;61637;47.760;-122.022;2022-12-18T04:16:01;21.7;;;19.7;;
73421;SDS011;61637;47.760;-122.022;2022-12-18T04:18:02;23.1;;;21.0;;
73421;SDS011;61637;47.760;-122.022;2022-12-18T04:20:02;25.4;;;22.8;;
73421;SDS011;61637;47.760;-122.022;2022-12-18T04:22:02;24.1;;;21.8;;
73421;SDS011;61637;47.760;-122.022;2022-12-18T04:24:01;21.9;;;19.8;;
73421;SDS011;61637;47.760;-122.022;2022-12-18T04:26:01;21.5;;;19.6;;
73421;SDS011;61637;47.760;-122.022;2022-12-18T04:28:01;21.7;;;19.8;;
73421;SDS011;61637;47.760;-122.022;2022-12-18T04:30:02;21.0;;;19.1;;
73421;SDS011;61637;47.760;-122.022;2022-12-18T04:32:01;19.5;;;17.7;;
73421;SDS011;61637;47.760;-122.022;2022-12-18T04:34:01;20.0;;;18.3;;
73421;SDS011;61637;47.760;-122.022;2022-12-18T04:36:01;20.6;;;18.8;;
73421;SDS011;61637;47.760;-122.022;2022-12-18T04:38:01;20.1;;;18.3;;
73421;SDS011;61637;47.760;-122.022;2022-12-18T04:40:01;20.2;;;18.3;;
73421;SDS011;61637;47.760;-122.022;2022-12-18T04:42:01;21.9;;;19.9;;
73421;SDS011;61637;47.760;-122.022;2022-12-18T04:44:01;21.5;;;19.5;;
73421;SDS011;61637;47.760;-122.022;2022-12-18T04:46:03;19.1;;;17.5;;
73421;SDS011;61637;47.760;-122.022;2022-12-18T04:48:02;21.4;;;19.2;;
73421;SDS011;61637;47.760;-122.022;2022-12-18T04:50:01;21.9;;;19.9;;
73421;SDS011;61637;47.760;-122.022;2022-12-18T04:52:01;20.1;;;18.4;;
73421;SDS011;61637;47.760;-122.022;2022-12-18T04:54:01;21.0;;;19.0;;
73421;SDS011;61637;47.760;-122.022;2022-12-18T04:56:04;21.8;;;19.8;;
73421;SDS011;61637;47.760;-122.022;2022-12-18T04:58:01;21.0;;;19.1;;
73421;SDS011;61637;47.760;-122.022;2022-12-18T05:00:03;19.1;;;17.5;;
73421;SDS011;61637;47.760;-122.022;2022-12-18T05:02:01;21.9;;;19.8;;
73421;SDS011;61637;47.760;-122.022;2022-12-18T05:04:02;34.9;;;18.6;;
73421;SDS011;61637;47.760;-122.022;2022-12-18T05:06:02;23.6;;;19.3;;
73421;SDS011;61637;47.760;-122.022;2022-12-18T05:08:01;20.9;;;19.0;;
73421;SDS011;61637;47.760;-122.022;2022-12-18T05:10:02;19.7;;;18.0;;
73421;SDS011;61637;47.760;-122.022;2022-12-18T05:12:01;19.8;;;18.0;;
73421;SDS011;61637;47.760;-122.022;2022-12-18T05:14:01;19.8;;;18.1;;
73421;SDS011;61637;47.760;-122.022;2022-12-18T05:16:02;26.0;;;20.0;;
73421;SDS011;61637;47.760;-122.022;2022-12-18T05:18:02;20.8;;;18.9;;
73421;SDS011;61637;47.760;-122.022;2022-12-18T05:20:01;19.4;;;17.7;;
73421;SDS011;61637;47.760;-122.022;2022-12-18T05:22:01;19.8;;;18.1;;
73421;SDS011;61637;47.760;-122.022;2022-12-18T05:24:01;19.8;;;18.0;;
73421;SDS011;61637;47.760;-122.022;2022-12-18T05:26:03;20.1;;;18.3;;
73421;SDS011;61637;47.760;-122.022;2022-12-18T05:28:01;19.3;;;17.5;;
73421;SDS011;61637;47.760;-122.022;2022-12-18T05:30:02;19.5;;;17.8;;
73421;SDS011;61637;47.760;-122.022;2022-12-18T05:32:01;20.0;;;18.3;;
73421;SDS011;61637;47.760;-122.022;2022-12-18T05:34:01;25.1;;;19.6;;
73421;SDS011;61637;47.760;-122.022;2022-12-18T05:36:03;19.7;;;17.7;;
73421;SDS011;61637;47.760;-122.022;2022-12-18T05:38:01;49.8;;;19.7;;
73421;SDS011;61637;47.760;-122.022;2022-12-18T05:40:02;19.7;;;17.7;;
73421;SDS011;61637;47.760;-122.022;2022-12-18T05:42:01;20.3;;;18.5;;
73421;SDS011;61637;47.760;-122.022;2022-12-18T05:44:02;20.7;;;18.8;;
73421;SDS011;61637;47.760;-122.022;2022-12-18T05:46:05;20.2;;;18.3;;
73421;SDS011;61637;47.760;-122.022;2022-12-18T05:48:01;20.6;;;18.7;;
73421;SDS011;61637;47.760;-122.022;2022-12-18T05:50:01;18.8;;;17.0;;
73421;SDS011;61637;47.760;-122.022;2022-12-18T05:52:02;56.6;;;20.6;;
73421;SDS011;61637;47.760;-122.022;2022-12-18T05:54:01;19.6;;;17.8;;
73421;SDS011;61637;47.760;-122.022;2022-12-18T05:56:02;22.5;;;17.5;;
73421;SDS011;61637;47.760;-122.022;2022-12-18T05:58:02;20.3;;;18.2;;
73421;SDS011;61637;47.760;-122.022;2022-12-18T06:00:02;27.6;;;19.0;;
73421;SDS011;61637;47.760;-122.022;2022-12-18T06:02:01;21.0;;;19.1;;
73421;SDS011;61637;47.760;-122.022;2022-12-18T06:04:01;20.3;;;18.4;;
73421;SDS011;61637;47.760;-122.022;2022-12-18T06:06:01;20.8;;;18.9;;
73421;SDS011;61637;47.760;-122.022;2022-12-18T06:08:02;20.2;;;18.4;;
73421;SDS011;61637;47.760;-122.022;2022-12-18T06:10:01;19.9;;;18.0;;
73421;SDS011;61637;47.760;-122.022;2022-12-18T06:12:01;21.6;;;19.6;;
73421;SDS011;61637;47.760;-122.022;2022-12-18T06:14:02;22.1;;;19.6;;
73421;SDS011;61637;47.760;-122.022;2022-12-18T06:16:02;22.4;;;20.1;;
73421;SDS011;61637;47.760;-122.022;2022-12-18T06:18:01;68.0;;;25.3;;
73421;SDS011;61637;47.760;-122.022;2022-12-18T06:20:01;22.5;;;20.4;;
73421;SDS011;61637;47.760;-122.022;2022-12-18T06:22:01;21.8;;;19.0;;
73421;SDS011;61637;47.760;-122.022;2022-12-18T06:24:01;21.8;;;19.0;;
73421;SDS011;61637;47.760;-122.022;2022-12-18T06:26:05;25.8;;;18.6;;
73421;SDS011;61637;47.760;-122.022;2022-12-18T06:28:01;25.8;;;18.6;;
73421;SDS011;61637;47.760;-122.022;2022-12-18T06:30:02;20.8;;;18.7;;
73421;SDS011;61637;47.760;-122.022;2022-12-18T06:32:01;26.9;;;20.4;;
73421;SDS011;61637;47.760;-122.022;2022-12-18T06:34:03;21.5;;;19.2;;
73421;SDS011;61637;47.760;-122.022;2022-12-18T06:36:03;42.6;;;20.0;;
73421;SDS011;61637;47.760;-122.022;2022-12-18T06:38:01;21.5;;;19.5;;
73421;SDS011;61637;47.760;-122.022;2022-12-18T06:40:01;59.7;;;20.7;;
73421;SDS011;61637;47.760;-122.022;2022-12-18T06:42:01;26.6;;;20.8;;
73421;SDS011;61637;47.760;-122.022;2022-12-18T06:44:01;22.5;;;20.3;;
73421;SDS011;61637;47.760;-122.022;2022-12-18T06:46:02;21.3;;;19.4;;
73421;SDS011;61637;47.760;-122.022;2022-12-18T06:48:02;20.7;;;18.9;;
73421;SDS011;61637;47.760;-122.022;2022-12-18T06:50:01;18.3;;;16.7;;
73421;SDS011;61637;47.760;-122.022;2022-12-18T06:52:01;22.2;;;20.1;;
73421;SDS011;61637;47.760;-122.022;2022-12-18T06:54:01;23.5;;;21.2;;
73421;SDS011;61637;47.760;-122.022;2022-12-18T06:56:02;20.5;;;18.6;;
73421;SDS011;61637;47.760;-122.022;2022-12-18T06:58:01;19.3;;;17.6;;
73421;SDS011;61637;47.760;-122.022;2022-12-18T07:00:02;20.7;;;18.8;;
73421;SDS011;61637;47.760;-122.022;2022-12-18T07:02:01;22.4;;;20.3;;
73421;SDS011;61637;47.760;-122.022;2022-12-18T07:04:01;22.9;;;20.6;;
73421;SDS011;61637;47.760;-122.022;2022-12-18T07:06:02;20.8;;;19.0;;
73421;SDS011;61637;47.760;-122.022;2022-12-18T07:08:01;21.1;;;19.1;;
73421;SDS011;61637;47.760;-122.022;2022-12-18T07:10:02;19.7;;;17.9;;
73421;SDS011;61637;47.760;-122.022;2022-12-18T07:12:01;36.8;;;22.5;;
73421;SDS011;61637;47.760;-122.022;2022-12-18T07:14:01;22.7;;;20.5;;
73421;SDS011;61637;47.760;-122.022;2022-12-18T07:16:05;20.6;;;18.6;;
73421;SDS011;61637;47.760;-122.022;2022-12-18T07:18:01;21.1;;;19.2;;
73421;SDS011;61637;47.760;-122.022;2022-12-18T07:20:01;22.3;;;20.2;;
73421;SDS011;61637;47.760;-122.022;2022-12-18T07:22:01;22.3;;;20.2;;
73421;SDS011;61637;47.760;-122.022;2022-12-18T07:24:01;20.5;;;18.7;;
73421;SDS011;61637;47.760;-122.022;2022-12-18T07:26:02;21.5;;;19.2;;
73421;SDS011;61637;47.760;-122.022;2022-12-18T07:28:01;20.3;;;18.5;;
73421;SDS011;61637;47.760;-122.022;2022-12-18T07:30:01;20.2;;;18.3;;
73421;SDS011;61637;47.760;-122.022;2022-12-18T07:32:01;18.5;;;16.8;;
73421;SDS011;61637;47.760;-122.022;2022-12-18T07:34:01;21.0;;;18.9;;
73421;SDS011;61637;47.760;-122.022;2022-12-18T07:36:02;20.7;;;18.8;;
73421;SDS011;61637;47.760;-122.022;2022-12-18T07:38:01;20.4;;;18.5;;
73421;SDS011;61637;47.760;-122.022;2022-12-18T07:40:01;21.6;;;19.5;;
73421;SDS011;61637;47.760;-122.022;2022-12-18T07:42:01;19.7;;;17.6;;
73421;SDS011;61637;47.760;-122.022;2022-12-18T07:44:01;32.7;;;18.4;;
73421;SDS011;61637;47.760;-122.022;2022-12-18T07:46:02;24.3;;;19.5;;
73421;SDS011;61637;47.760;-122.022;2022-12-18T07:48:01;19.7;;;18.0;;
73421;SDS011;61637;47.760;-122.022;2022-12-18T07:50:01;19.8;;;18.0;;
73421;SDS011;61637;47.760;-122.022;2022-12-18T07:52:01;20.8;;;18.7;;
73421;SDS011;61637;47.760;-122.022;2022-12-18T07:54:01;20.3;;;18.5;;
73421;SDS011;61637;47.760;-122.022;2022-12-18T07:56:04;35.6;;;22.7;;
73421;SDS011;61637;47.760;-122.022;2022-12-18T07:58:02;72.6;;;19.9;;
73421;SDS011;61637;47.760;-122.022;2022-12-18T08:00:01;23.4;;;17.6;;
73421;SDS011;61637;47.760;-122.022;2022-12-18T08:02:01;23.0;;;17.3;;
73421;SDS011;61637;47.760;-122.022;2022-12-18T08:04:01;34.3;;;19.2;;
73421;SDS011;61637;47.760;-122.022;2022-12-18T08:06:02;127.1;;;21.0;;
73421;SDS011;61637;47.760;-122.022;2022-12-18T08:08:01;82.0;;;18.1;;
73421;SDS011;61637;47.760;-122.022;2022-12-18T08:10:02;20.3;;;18.4;;
73421;SDS011;61637;47.760;-122.022;2022-12-18T08:12:01;19.6;;;17.8;;
73421;SDS011;61637;47.760;-122.022;2022-12-18T08:14:01;20.6;;;18.7;;
73421;SDS011;61637;47.760;-122.022;2022-12-18T08:16:02;20.9;;;18.8;;
73421;SDS011;61637;47.760;-122.022;2022-12-18T08:18:01;19.5;;;17.5;;
73421;SDS011;61637;47.760;-122.022;2022-12-18T08:20:01;20.6;;;18.7;;
73421;SDS011;61637;47.760;-122.022;2022-12-18T08:22:02;20.5;;;18.5;;
73421;SDS011;61637;47.760;-122.022;2022-12-18T08:24:02;21.9;;;19.8;;
73421;SDS011;61637;47.760;-122.022;2022-12-18T08:26:01;21.6;;;19.6;;
73421;SDS011;61637;47.760;-122.022;2022-12-18T08:28:01;21.4;;;19.4;;
73421;SDS011;61637;47.760;-122.022;2022-12-18T08:30:01;22.2;;;20.1;;
73421;SDS011;61637;47.760;-122.022;2022-12-18T08:32:01;22.5;;;20.1;;
73421;SDS011;61637;47.760;-122.022;2022-12-18T08:34:01;19.5;;;17.7;;
73421;SDS011;61637;47.760;-122.022;2022-12-18T08:36:01;20.2;;;18.2;;
73421;SDS011;61637;47.760;-122.022;2022-12-18T08:38:01;22.9;;;20.4;;
73421;SDS011;61637;47.760;-122.022;2022-12-18T08:40:01;23.7;;;21.4;;
73421;SDS011;61637;47.760;-122.022;2022-12-18T08:42:01;22.2;;;20.0;;
73421;SDS011;61637;47.760;-122.022;2022-12-18T08:44:01;22.5;;;20.2;;
73421;SDS011;61637;47.760;-122.022;2022-12-18T08:46:01;22.6;;;20.2;;
73421;SDS011;61637;47.760;-122.022;2022-12-18T08:48:01;21.8;;;19.7;;
73421;SDS011;61637;47.760;-122.022;2022-12-18T08:50:01;19.8;;;17.9;;
73421;SDS011;61637;47.760;-122.022;2022-12-18T08:52:01;20.6;;;18.6;;
73421;SDS011;61637;47.760;-122.022;2022-12-18T08:54:02;19.6;;;17.8;;
73421;SDS011;61637;47.760;-122.022;2022-12-18T08:56:02;19.8;;;17.8;;
73421;SDS011;61637;47.760;-122.022;2022-12-18T08:58:01;20.6;;;18.7;;
73421;SDS011;61637;47.760;-122.022;2022-12-18T09:00:01;23.1;;;20.7;;
73421;SDS011;61637;47.760;-122.022;2022-12-18T09:02:01;19.5;;;17.7;;
73421;SDS011;61637;47.760;-122.022;2022-12-18T09:04:01;19.8;;;18.0;;
73421;SDS011;61637;47.760;-122.022;2022-12-18T09:06:01;20.8;;;18.7;;
73421;SDS011;61637;47.760;-122.022;2022-12-18T09:08:01;20.6;;;18.5;;
73421;SDS011;61637;47.760;-122.022;2022-12-18T09:10:01;19.1;;;17.4;;
73421;SDS011;61637;47.760;-122.022;2022-12-18T09:12:01;19.2;;;17.3;;
73421;SDS011;61637;47.760;-122.022;2022-12-18T09:14:02;20.3;;;18.3;;
73421;SDS011;61637;47.760;-122.022;2022-12-18T09:16:03;20.2;;;18.3;;
73421;SDS011;61637;47.760;-122.022;2022-12-18T09:18:01;19.3;;;17.6;;
73421;SDS011;61637;47.760;-122.022;2022-12-18T09:20:01;18.1;;;16.4;;
73421;SDS011;61637;47.760;-122.022;2022-12-18T09:22:01;17.6;;;16.0;;
73421;SDS011;61637;47.760;-122.022;2022-12-18T09:24:01;26.1;;;17.5;;
73421;SDS011;61637;47.760;-122.022;2022-12-18T09:26:01;19.7;;;17.7;;
73421;SDS011;61637;47.760;-122.022;2022-12-18T09:28:02;18.2;;;16.5;;
73421;SDS011;61637;47.760;-122.022;2022-12-18T09:30:01;18.0;;;16.3;;
73421;SDS011;61637;47.760;-122.022;2022-12-18T09:32:01;21.7;;;16.0;;
73421;SDS011;61637;47.760;-122.022;2022-12-18T09:34:02;17.8;;;16.2;;
73421;SDS011;61637;47.760;-122.022;2022-12-18T09:36:05;18.2;;;16.6;;
73421;SDS011;61637;47.760;-122.022;2022-12-18T09:38:01;16.7;;;15.2;;
73421;SDS011;61637;47.760;-122.022;2022-12-18T09:40:02;15.9;;;14.5;;
73421;SDS011;61637;47.760;-122.022;2022-12-18T09:42:01;15.8;;;14.4;;
73421;SDS011;61637;47.760;-122.022;2022-12-18T09:44:03;16.0;;;14.4;;
73421;SDS011;61637;47.760;-122.022;2022-12-18T09:46:04;21.7;;;14.4;;
73421;SDS011;61637;47.760;-122.022;2022-12-18T09:48:01;17.4;;;15.6;;
73421;SDS011;61637;47.760;-122.022;2022-12-18T09:50:04;18.5;;;15.3;;
73421;SDS011;61637;47.760;-122.022;2022-12-18T09:52:05;15.6;;;14.3;;
73421;SDS011;61637;47.760;-122.022;2022-12-18T09:54:04;15.8;;;14.4;;
73421;SDS011;61637;47.760;-122.022;2022-12-18T09:56:03;77.4;;;17.5;;
73421;SDS011;61637;47.760;-122.022;2022-12-18T09:58:06;21.6;;;15.2;;
73421;SDS011;61637;47.760;-122.022;2022-12-18T10:00:09;38.7;;;15.7;;
73421;SDS011;61637;47.760;-122.022;2022-12-18T10:02:13;91.3;;;17.2;;
73421;SDS011;61637;47.760;-122.022;2022-12-18T10:04:01;17.6;;;15.8;;
73421;SDS011;61637;47.760;-122.022;2022-12-18T10:06:05;17.8;;;16.1;;
73421;SDS011;61637;47.760;-122.022;2022-12-18T10:08:08;17.4;;;15.7;;
73421;SDS011;61637;47.760;-122.022;2022-12-18T10:10:08;15.9;;;14.5;;
73421;SDS011;61637;47.760;-122.022;2022-12-18T10:12:08;18.5;;;16.6;;
73421;SDS011;61637;47.760;-122.022;2022-12-18T10:14:06;20.2;;;17.9;;
73421;SDS011;61637;47.760;-122.022;2022-12-18T10:16:08;18.4;;;16.6;;
73421;SDS011;61637;47.760;-122.022;2022-12-18T10:18:06;18.2;;;16.5;;
73421;SDS011;61637;47.760;-122.022;2022-12-18T10:20:04;18.5;;;16.6;;
73421;SDS011;61637;47.760;-122.022;2022-12-18T10:22:11;16.4;;;14.9;;
73421;SDS011;61637;47.760;-122.022;2022-12-18T10:24:11;16.3;;;14.7;;
73421;SDS011;61637;47.760;-122.022;2022-12-18T10:26:04;17.3;;;15.6;;
73421;SDS011;61637;47.760;-122.022;2022-12-18T10:28:09;17.3;;;15.7;;
73421;SDS011;61637;47.760;-122.022;2022-12-18T10:30:12;17.1;;;15.4;;
73421;SDS011;61637;47.760;-122.022;2022-12-18T10:32:01;16.2;;;14.6;;
73421;SDS011;61637;47.760;-122.022;2022-12-18T10:34:01;16.9;;;15.4;;
73421;SDS011;61637;47.760;-122.022;2022-12-18T10:36:01;15.8;;;14.3;;
73421;SDS011;61637;47.760;-122.022;2022-12-18T10:38:04;17.0;;;15.3;;
73421;SDS011;61637;47.760;-122.022;2022-12-18T10:40:11;16.4;;;14.8;;
73421;SDS011;61637;47.760;-122.022;2022-12-18T10:42:11;17.2;;;15.7;;
73421;SDS011;61637;47.760;-122.022;2022-12-18T10:44:12;16.6;;;15.1;;
73421;SDS011;61637;47.760;-122.022;2022-12-18T10:46:11;17.8;;;16.0;;
73421;SDS011;61637;47.760;-122.022;2022-12-18T10:48:01;17.8;;;16.0;;
73421;SDS011;61637;47.760;-122.022;2022-12-18T10:50:02;17.0;;;15.4;;
73421;SDS011;61637;47.760;-122.022;2022-12-18T10:52:14;15.7;;;14.2;;
73421;SDS011;61637;47.760;-122.022;2022-12-18T10:54:04;15.7;;;14.2;;
73421;SDS011;61637;47.760;-122.022;2022-12-18T10:56:03;17.2;;;15.5;;
73421;SDS011;61637;47.760;-122.022;2022-12-18T10:58:16;17.7;;;15.9;;
73421;SDS011;61637;47.760;-122.022;2022-12-18T11:02:01;17.8;;;16.0;;
73421;SDS011;61637;47.760;-122.022;2022-12-18T11:04:08;16.9;;;15.3;;
73421;SDS011;61637;47.760;-122.022;2022-12-18T11:06:05;16.3;;;14.8;;
73421;SDS011;61637;47.760;-122.022;2022-12-18T11:08:01;17.7;;;16.1;;
73421;SDS011;61637;47.760;-122.022;2022-12-18T11:10:02;16.7;;;15.1;;
73421;SDS011;61637;47.760;-122.022;2022-12-18T11:12:03;16.9;;;15.1;;
73421;SDS011;61637;47.760;-122.022;2022-12-18T11:14:03;17.3;;;15.7;;
73421;SDS011;61637;47.760;-122.022;2022-12-18T11:16:01;17.1;;;15.4;;
73421;SDS011;61637;47.760;-122.022;2022-12-18T11:18:01;17.0;;;15.4;;
73421;SDS011;61637;47.760;-122.022;2022-12-18T11:20:03;16.3;;;14.8;;
73421;SDS011;61637;47.760;-122.022;2022-12-18T11:22:16;16.0;;;14.6;;
73421;SDS011;61637;47.760;-122.022;2022-12-18T11:24:02;16.1;;;14.5;;
73421;SDS011;61637;47.760;-122.022;2022-12-18T11:26:04;16.4;;;15.0;;
73421;SDS011;61637;47.760;-122.022;2022-12-18T11:28:03;15.2;;;13.8;;
73421;SDS011;61637;47.760;-122.022;2022-12-18T11:30:08;18.3;;;15.9;;
73421;SDS011;61637;47.760;-122.022;2022-12-18T11:34:05;15.8;;;14.4;;
73421;SDS011;61637;47.760;-122.022;2022-12-18T11:36:03;15.9;;;14.4;;